sensor_id;sensor_type;location;lat;lon;timestamp;P1;durP1;ratioP1;P2;durP2;ratioP2
6143;SDS011;3103;49.492;8.474;2023-02-19T00:01:39;5.90;;;4.87;;
6143;SDS011;3103;49.492;8.474;2023-02-19T00:04:14;7.53;;;4.17;;
6143;SDS011;3103;49.492;8.474;2023-02-19T00:06:45;5.07;;;3.70;;
6143;SDS011;3103;49.492;8.474;2023-02-19T00:09:13;4.40;;;4.00;;
6143;SDS011;3103;49.492;8.474;2023-02-19T00:11:42;6.77;;;4.30;;
6143;SDS011;3103;49.492;8.474;2023-02-19T00:14:10;3.70;;;3.33;;
6143;SDS011;3103;49.492;8.474;2023-02-19T00:16:41;3.03;;;2.70;;
6143;SDS011;3103;49.492;8.474;2023-02-19T00:19:10;5.20;;;3.53;;
6143;SDS011;3103;49.492;8.474;2023-02-19T00:21:39;4.43;;;3.57;;
6143;SDS011;3103;49.492;8.474;2023-02-19T00:24:06;5.93;;;3.50;;
6143;SDS011;3103;49.492;8.474;2023-02-19T00:26:37;4.40;;;3.20;;
6143;SDS011;3103;49.492;8.474;2023-02-19T00:29:05;4.13;;;3.73;;
6143;SDS011;3103;49.492;8.474;2023-02-19T00:31:32;4.80;;;3.50;;
6143;SDS011;3103;49.492;8.474;2023-02-19T00:34:02;4.10;;;3.70;;
6143;SDS011;3103;49.492;8.474;2023-02-19T00:36:32;5.53;;;3.77;;
6143;SDS011;3103;49.492;8.474;2023-02-19T00:39:01;4.43;;;3.60;;
6143;SDS011;3103;49.492;8.474;2023-02-19T00:41:29;5.30;;;3.10;;
6143;SDS011;3103;49.492;8.474;2023-02-19T00:43:57;4.37;;;2.97;;
6143;SDS011;3103;49.492;8.474;2023-02-19T00:46:26;4.67;;;3.73;;
6143;SDS011;3103;49.492;8.474;2023-02-19T00:48:54;7.60;;;4.50;;
6143;SDS011;3103;49.492;8.474;2023-02-19T00:51:24;5.33;;;3.40;;
6143;SDS011;3103;49.492;8.474;2023-02-19T00:53:56;5.53;;;3.10;;
6143;SDS011;3103;49.492;8.474;2023-02-19T00:56:23;4.30;;;2.93;;
6143;SDS011;3103;49.492;8.474;2023-02-19T00:58:50;3.00;;;2.70;;
6143;SDS011;3103;49.492;8.474;2023-02-19T01:01:17;3.47;;;3.10;;
6143;SDS011;3103;49.492;8.474;2023-02-19T01:03:45;3.17;;;2.87;;
6143;SDS011;3103;49.492;8.474;2023-02-19T01:06:13;3.43;;;3.13;;
6143;SDS011;3103;49.492;8.474;2023-02-19T01:08:42;4.40;;;3.30;;
6143;SDS011;3103;49.492;8.474;2023-02-19T01:11:09;3.80;;;3.20;;
6143;SDS011;3103;49.492;8.474;2023-02-19T01:13:37;3.87;;;3.37;;
6143;SDS011;3103;49.492;8.474;2023-02-19T01:16:12;3.87;;;3.00;;
6143;SDS011;3103;49.492;8.474;2023-02-19T01:18:44;3.63;;;3.33;;
6143;SDS011;3103;49.492;8.474;2023-02-19T01:21:12;2.83;;;2.53;;
6143;SDS011;3103;49.492;8.474;2023-02-19T01:23:44;3.37;;;3.07;;
6143;SDS011;3103;49.492;8.474;2023-02-19T01:26:13;2.80;;;2.60;;
6143;SDS011;3103;49.492;8.474;2023-02-19T01:28:42;3.07;;;2.77;;
6143;SDS011;3103;49.492;8.474;2023-02-19T01:31:11;3.17;;;2.83;;
6143;SDS011;3103;49.492;8.474;2023-02-19T01:33:43;4.13;;;2.90;;
6143;SDS011;3103;49.492;8.474;2023-02-19T01:36:13;3.23;;;2.70;;
6143;SDS011;3103;49.492;8.474;2023-02-19T01:38:41;2.80;;;2.60;;
6143;SDS011;3103;49.492;8.474;2023-02-19T01:41:09;3.17;;;2.93;;
6143;SDS011;3103;49.492;8.474;2023-02-19T01:46:31;3.50;;;3.00;;
6143;SDS011;3103;49.492;8.474;2023-02-19T01:51:38;2.87;;;2.47;;
6143;SDS011;3103;49.492;8.474;2023-02-19T01:54:10;3.10;;;2.80;;
6143;SDS011;3103;49.492;8.474;2023-02-19T01:56:40;4.33;;;2.87;;
6143;SDS011;3103;49.492;8.474;2023-02-19T01:59:08;2.83;;;2.60;;
6143;SDS011;3103;49.492;8.474;2023-02-19T02:01:36;2.80;;;2.50;;
6143;SDS011;3103;49.492;8.474;2023-02-19T02:04:05;3.27;;;2.53;;
6143;SDS011;3103;49.492;8.474;2023-02-19T02:06:49;4.07;;;2.60;;
6143;SDS011;3103;49.492;8.474;2023-02-19T02:09:21;2.60;;;2.40;;
6143;SDS011;3103;49.492;8.474;2023-02-19T02:12:11;3.63;;;2.60;;
6143;SDS011;3103;49.492;8.474;2023-02-19T02:14:42;3.00;;;2.70;;
6143;SDS011;3103;49.492;8.474;2023-02-19T02:17:19;2.93;;;2.60;;
6143;SDS011;3103;49.492;8.474;2023-02-19T02:20:15;2.50;;;2.30;;
6143;SDS011;3103;49.492;8.474;2023-02-19T02:23:15;2.90;;;2.50;;
6143;SDS011;3103;49.492;8.474;2023-02-19T02:26:13;3.47;;;2.90;;
6143;SDS011;3103;49.492;8.474;2023-02-19T02:31:42;2.60;;;2.30;;
6143;SDS011;3103;49.492;8.474;2023-02-19T02:34:18;3.40;;;2.47;;
6143;SDS011;3103;49.492;8.474;2023-02-19T02:36:51;2.50;;;2.30;;
6143;SDS011;3103;49.492;8.474;2023-02-19T02:39:22;2.57;;;2.37;;
6143;SDS011;3103;49.492;8.474;2023-02-19T02:41:56;2.83;;;2.43;;
6143;SDS011;3103;49.492;8.474;2023-02-19T02:44:51;2.40;;;2.20;;
6143;SDS011;3103;49.492;8.474;2023-02-19T02:47:51;4.00;;;2.10;;
6143;SDS011;3103;49.492;8.474;2023-02-19T02:50:22;3.27;;;2.10;;
6143;SDS011;3103;49.492;8.474;2023-02-19T02:53:00;2.40;;;2.20;;
6143;SDS011;3103;49.492;8.474;2023-02-19T02:55:50;2.30;;;2.10;;
6143;SDS011;3103;49.492;8.474;2023-02-19T02:58:20;2.77;;;2.20;;
6143;SDS011;3103;49.492;8.474;2023-02-19T03:00:54;2.30;;;2.10;;
6143;SDS011;3103;49.492;8.474;2023-02-19T03:03:44;1.90;;;1.80;;
6143;SDS011;3103;49.492;8.474;2023-02-19T03:06:14;2.47;;;2.00;;
6143;SDS011;3103;49.492;8.474;2023-02-19T03:11:20;2.03;;;1.90;;
6143;SDS011;3103;49.492;8.474;2023-02-19T03:16:59;1.90;;;1.80;;
6143;SDS011;3103;49.492;8.474;2023-02-19T03:19:52;1.90;;;1.80;;
6143;SDS011;3103;49.492;8.474;2023-02-19T03:22:22;2.40;;;2.17;;
6143;SDS011;3103;49.492;8.474;2023-02-19T03:25:03;2.30;;;2.10;;
6143;SDS011;3103;49.492;8.474;2023-02-19T03:27:53;2.20;;;2.00;;
6143;SDS011;3103;49.492;8.474;2023-02-19T03:30:24;2.43;;;2.10;;
6143;SDS011;3103;49.492;8.474;2023-02-19T03:35:34;2.40;;;2.20;;
6143;SDS011;3103;49.492;8.474;2023-02-19T03:38:16;2.10;;;1.97;;
6143;SDS011;3103;49.492;8.474;2023-02-19T03:40:51;2.37;;;2.17;;
6143;SDS011;3103;49.492;8.474;2023-02-19T03:43:36;2.60;;;2.40;;
6143;SDS011;3103;49.492;8.474;2023-02-19T03:46:10;2.67;;;2.10;;
6143;SDS011;3103;49.492;8.474;2023-02-19T03:48:53;2.13;;;2.03;;
6143;SDS011;3103;49.492;8.474;2023-02-19T03:51:44;2.13;;;1.93;;
6143;SDS011;3103;49.492;8.474;2023-02-19T03:54:21;2.57;;;2.37;;
6143;SDS011;3103;49.492;8.474;2023-02-19T03:56:59;2.57;;;2.37;;
6143;SDS011;3103;49.492;8.474;2023-02-19T04:02:24;3.10;;;2.67;;
6143;SDS011;3103;49.492;8.474;2023-02-19T04:05:02;2.93;;;2.63;;
6143;SDS011;3103;49.492;8.474;2023-02-19T04:07:34;2.90;;;2.70;;
6143;SDS011;3103;49.492;8.474;2023-02-19T04:10:03;2.50;;;2.30;;
6143;SDS011;3103;49.492;8.474;2023-02-19T04:12:38;2.63;;;2.43;;
6143;SDS011;3103;49.492;8.474;2023-02-19T04:15:11;2.93;;;2.57;;
6143;SDS011;3103;49.492;8.474;2023-02-19T04:17:43;2.50;;;2.30;;
6143;SDS011;3103;49.492;8.474;2023-02-19T04:20:13;2.40;;;2.20;;
6143;SDS011;3103;49.492;8.474;2023-02-19T04:22:42;2.27;;;2.07;;
6143;SDS011;3103;49.492;8.474;2023-02-19T04:25:09;2.70;;;2.50;;
6143;SDS011;3103;49.492;8.474;2023-02-19T04:27:37;2.60;;;2.33;;
6143;SDS011;3103;49.492;8.474;2023-02-19T04:30:05;2.40;;;2.20;;
6143;SDS011;3103;49.492;8.474;2023-02-19T04:32:33;2.53;;;2.07;;
6143;SDS011;3103;49.492;8.474;2023-02-19T04:35:00;2.53;;;2.33;;
6143;SDS011;3103;49.492;8.474;2023-02-19T04:37:29;2.33;;;2.13;;
6143;SDS011;3103;49.492;8.474;2023-02-19T04:39:56;2.83;;;2.63;;
6143;SDS011;3103;49.492;8.474;2023-02-19T04:42:22;2.47;;;2.27;;
6143;SDS011;3103;49.492;8.474;2023-02-19T04:44:49;2.97;;;2.30;;
6143;SDS011;3103;49.492;8.474;2023-02-19T04:47:16;3.00;;;2.70;;
6143;SDS011;3103;49.492;8.474;2023-02-19T04:49:43;3.33;;;2.80;;
6143;SDS011;3103;49.492;8.474;2023-02-19T04:52:10;3.10;;;2.40;;
6143;SDS011;3103;49.492;8.474;2023-02-19T04:54:38;2.60;;;2.40;;
6143;SDS011;3103;49.492;8.474;2023-02-19T04:57:05;2.40;;;2.20;;
6143;SDS011;3103;49.492;8.474;2023-02-19T04:59:32;2.30;;;2.10;;
6143;SDS011;3103;49.492;8.474;2023-02-19T05:01:59;2.40;;;2.20;;
6143;SDS011;3103;49.492;8.474;2023-02-19T05:04:26;2.87;;;2.60;;
6143;SDS011;3103;49.492;8.474;2023-02-19T05:06:52;2.43;;;2.23;;
6143;SDS011;3103;49.492;8.474;2023-02-19T05:09:19;2.43;;;2.17;;
6143;SDS011;3103;49.492;8.474;2023-02-19T05:11:46;2.93;;;2.63;;
6143;SDS011;3103;49.492;8.474;2023-02-19T05:14:13;3.50;;;2.33;;
6143;SDS011;3103;49.492;8.474;2023-02-19T05:16:39;2.67;;;2.47;;
6143;SDS011;3103;49.492;8.474;2023-02-19T05:19:08;2.83;;;2.50;;
6143;SDS011;3103;49.492;8.474;2023-02-19T05:21:37;2.50;;;2.30;;
6143;SDS011;3103;49.492;8.474;2023-02-19T05:24:06;3.07;;;2.77;;
6143;SDS011;3103;49.492;8.474;2023-02-19T05:26:33;3.03;;;2.77;;
6143;SDS011;3103;49.492;8.474;2023-02-19T05:28:59;3.07;;;2.77;;
6143;SDS011;3103;49.492;8.474;2023-02-19T05:31:27;2.73;;;2.53;;
6143;SDS011;3103;49.492;8.474;2023-02-19T05:33:54;4.37;;;3.27;;
6143;SDS011;3103;49.492;8.474;2023-02-19T05:36:22;2.73;;;2.53;;
6143;SDS011;3103;49.492;8.474;2023-02-19T05:38:52;2.60;;;2.40;;
6143;SDS011;3103;49.492;8.474;2023-02-19T05:41:24;4.57;;;2.60;;
6143;SDS011;3103;49.492;8.474;2023-02-19T05:43:52;4.03;;;2.67;;
6143;SDS011;3103;49.492;8.474;2023-02-19T05:46:20;2.97;;;2.70;;
6143;SDS011;3103;49.492;8.474;2023-02-19T05:48:49;2.70;;;2.50;;
6143;SDS011;3103;49.492;8.474;2023-02-19T05:51:18;4.93;;;2.40;;
6143;SDS011;3103;49.492;8.474;2023-02-19T05:53:46;3.70;;;2.37;;
6143;SDS011;3103;49.492;8.474;2023-02-19T05:56:28;2.47;;;2.27;;
6143;SDS011;3103;49.492;8.474;2023-02-19T05:59:14;3.03;;;2.73;;
6143;SDS011;3103;49.492;8.474;2023-02-19T06:01:41;2.73;;;2.43;;
6143;SDS011;3103;49.492;8.474;2023-02-19T06:04:09;3.13;;;2.60;;
6143;SDS011;3103;49.492;8.474;2023-02-19T06:06:37;2.90;;;2.67;;
6143;SDS011;3103;49.492;8.474;2023-02-19T06:09:05;2.57;;;2.37;;
6143;SDS011;3103;49.492;8.474;2023-02-19T06:11:33;7.13;;;3.07;;
6143;SDS011;3103;49.492;8.474;2023-02-19T06:14:00;2.83;;;2.63;;
6143;SDS011;3103;49.492;8.474;2023-02-19T06:16:27;3.10;;;2.70;;
6143;SDS011;3103;49.492;8.474;2023-02-19T06:18:54;2.53;;;2.33;;
6143;SDS011;3103;49.492;8.474;2023-02-19T06:21:21;2.80;;;2.60;;
6143;SDS011;3103;49.492;8.474;2023-02-19T06:23:49;3.10;;;2.63;;
6143;SDS011;3103;49.492;8.474;2023-02-19T06:26:16;3.10;;;2.63;;
6143;SDS011;3103;49.492;8.474;2023-02-19T06:28:45;3.47;;;3.17;;
6143;SDS011;3103;49.492;8.474;2023-02-19T06:31:14;3.07;;;2.73;;
6143;SDS011;3103;49.492;8.474;2023-02-19T06:33:41;3.40;;;2.50;;
6143;SDS011;3103;49.492;8.474;2023-02-19T06:36:12;3.23;;;2.93;;
6143;SDS011;3103;49.492;8.474;2023-02-19T06:38:41;2.77;;;2.57;;
6143;SDS011;3103;49.492;8.474;2023-02-19T06:41:09;3.53;;;2.30;;
6143;SDS011;3103;49.492;8.474;2023-02-19T06:43:38;3.77;;;2.47;;
6143;SDS011;3103;49.492;8.474;2023-02-19T06:46:05;3.50;;;2.90;;
6143;SDS011;3103;49.492;8.474;2023-02-19T06:48:33;3.90;;;2.80;;
6143;SDS011;3103;49.492;8.474;2023-02-19T06:51:00;3.07;;;2.77;;
6143;SDS011;3103;49.492;8.474;2023-02-19T06:53:27;3.43;;;3.03;;
6143;SDS011;3103;49.492;8.474;2023-02-19T06:56:02;2.60;;;2.40;;
6143;SDS011;3103;49.492;8.474;2023-02-19T06:58:33;3.63;;;2.80;;
6143;SDS011;3103;49.492;8.474;2023-02-19T07:01:00;3.33;;;2.93;;
6143;SDS011;3103;49.492;8.474;2023-02-19T07:03:27;5.37;;;3.00;;
6143;SDS011;3103;49.492;8.474;2023-02-19T07:05:54;4.43;;;2.67;;
6143;SDS011;3103;49.492;8.474;2023-02-19T07:08:20;2.47;;;2.27;;
6143;SDS011;3103;49.492;8.474;2023-02-19T07:10:54;3.50;;;2.53;;
6143;SDS011;3103;49.492;8.474;2023-02-19T07:13:22;3.80;;;2.63;;
6143;SDS011;3103;49.492;8.474;2023-02-19T07:15:50;5.27;;;2.63;;
6143;SDS011;3103;49.492;8.474;2023-02-19T07:18:17;3.30;;;2.40;;
6143;SDS011;3103;49.492;8.474;2023-02-19T07:20:44;2.80;;;2.60;;
6143;SDS011;3103;49.492;8.474;2023-02-19T07:23:12;2.83;;;2.10;;
6143;SDS011;3103;49.492;8.474;2023-02-19T07:25:38;2.70;;;2.30;;
6143;SDS011;3103;49.492;8.474;2023-02-19T07:28:05;3.93;;;2.50;;
6143;SDS011;3103;49.492;8.474;2023-02-19T07:30:32;3.40;;;2.57;;
6143;SDS011;3103;49.492;8.474;2023-02-19T07:32:59;2.17;;;2.03;;
6143;SDS011;3103;49.492;8.474;2023-02-19T07:35:26;3.27;;;2.63;;
6143;SDS011;3103;49.492;8.474;2023-02-19T07:37:52;3.87;;;2.30;;
6143;SDS011;3103;49.492;8.474;2023-02-19T07:40:19;3.30;;;2.40;;
6143;SDS011;3103;49.492;8.474;2023-02-19T07:42:46;3.47;;;2.33;;
6143;SDS011;3103;49.492;8.474;2023-02-19T07:45:15;3.53;;;2.37;;
6143;SDS011;3103;49.492;8.474;2023-02-19T07:47:42;2.80;;;2.27;;
6143;SDS011;3103;49.492;8.474;2023-02-19T07:50:08;3.00;;;2.30;;
6143;SDS011;3103;49.492;8.474;2023-02-19T07:52:38;3.03;;;2.27;;
6143;SDS011;3103;49.492;8.474;2023-02-19T07:55:05;3.13;;;2.10;;
6143;SDS011;3103;49.492;8.474;2023-02-19T07:57:32;2.67;;;1.90;;
6143;SDS011;3103;49.492;8.474;2023-02-19T07:59:59;3.20;;;2.60;;
6143;SDS011;3103;49.492;8.474;2023-02-19T08:02:26;2.93;;;2.30;;
6143;SDS011;3103;49.492;8.474;2023-02-19T08:05:11;2.50;;;2.30;;
6143;SDS011;3103;49.492;8.474;2023-02-19T08:07:39;4.70;;;2.60;;
6143;SDS011;3103;49.492;8.474;2023-02-19T08:10:06;3.23;;;2.67;;
6143;SDS011;3103;49.492;8.474;2023-02-19T08:12:55;3.93;;;2.50;;
6143;SDS011;3103;49.492;8.474;2023-02-19T08:15:42;4.60;;;2.73;;
6143;SDS011;3103;49.492;8.474;2023-02-19T08:18:09;2.70;;;2.23;;
6143;SDS011;3103;49.492;8.474;2023-02-19T08:20:37;5.17;;;2.43;;
6143;SDS011;3103;49.492;8.474;2023-02-19T08:23:03;3.67;;;2.77;;
6143;SDS011;3103;49.492;8.474;2023-02-19T08:25:30;3.80;;;3.10;;
6143;SDS011;3103;49.492;8.474;2023-02-19T08:27:57;4.50;;;2.80;;
6143;SDS011;3103;49.492;8.474;2023-02-19T08:30:28;6.33;;;3.30;;
6143;SDS011;3103;49.492;8.474;2023-02-19T08:32:57;5.83;;;3.80;;
6143;SDS011;3103;49.492;8.474;2023-02-19T08:35:27;4.93;;;3.73;;
6143;SDS011;3103;49.492;8.474;2023-02-19T08:37:57;6.97;;;3.47;;
6143;SDS011;3103;49.492;8.474;2023-02-19T08:40:24;3.50;;;2.60;;
6143;SDS011;3103;49.492;8.474;2023-02-19T08:42:52;3.20;;;2.40;;
6143;SDS011;3103;49.492;8.474;2023-02-19T08:45:19;3.87;;;2.47;;
6143;SDS011;3103;49.492;8.474;2023-02-19T08:47:46;4.23;;;2.70;;
6143;SDS011;3103;49.492;8.474;2023-02-19T08:50:12;6.20;;;2.80;;
6143;SDS011;3103;49.492;8.474;2023-02-19T08:52:39;3.80;;;3.07;;
6143;SDS011;3103;49.492;8.474;2023-02-19T08:55:06;3.93;;;2.60;;
6143;SDS011;3103;49.492;8.474;2023-02-19T08:57:36;4.50;;;2.83;;
6143;SDS011;3103;49.492;8.474;2023-02-19T09:00:04;6.40;;;2.87;;
6143;SDS011;3103;49.492;8.474;2023-02-19T09:02:32;3.57;;;2.60;;
6143;SDS011;3103;49.492;8.474;2023-02-19T09:05:00;4.20;;;2.87;;
6143;SDS011;3103;49.492;8.474;2023-02-19T09:07:28;5.03;;;2.47;;
6143;SDS011;3103;49.492;8.474;2023-02-19T09:09:55;5.77;;;2.50;;
6143;SDS011;3103;49.492;8.474;2023-02-19T09:12:21;3.70;;;2.87;;
6143;SDS011;3103;49.492;8.474;2023-02-19T09:14:48;5.13;;;3.07;;
6143;SDS011;3103;49.492;8.474;2023-02-19T09:17:15;3.23;;;2.43;;
6143;SDS011;3103;49.492;8.474;2023-02-19T09:19:42;3.60;;;2.73;;
6143;SDS011;3103;49.492;8.474;2023-02-19T09:22:09;5.63;;;2.60;;
6143;SDS011;3103;49.492;8.474;2023-02-19T09:24:36;10.70;;;3.10;;
6143;SDS011;3103;49.492;8.474;2023-02-19T09:27:03;5.50;;;2.67;;
6143;SDS011;3103;49.492;8.474;2023-02-19T09:29:29;6.07;;;3.00;;
6143;SDS011;3103;49.492;8.474;2023-02-19T09:31:57;6.17;;;3.00;;
6143;SDS011;3103;49.492;8.474;2023-02-19T09:34:25;4.10;;;2.63;;
6143;SDS011;3103;49.492;8.474;2023-02-19T09:36:53;4.87;;;2.80;;
6143;SDS011;3103;49.492;8.474;2023-02-19T09:39:20;3.63;;;2.40;;
6143;SDS011;3103;49.492;8.474;2023-02-19T09:41:48;6.60;;;3.13;;
6143;SDS011;3103;49.492;8.474;2023-02-19T09:47:05;3.07;;;2.40;;
6143;SDS011;3103;49.492;8.474;2023-02-19T09:49:38;4.67;;;2.83;;
6143;SDS011;3103;49.492;8.474;2023-02-19T09:55:14;4.93;;;2.57;;
6143;SDS011;3103;49.492;8.474;2023-02-19T09:57:44;7.57;;;2.87;;
6143;SDS011;3103;49.492;8.474;2023-02-19T10:00:25;3.40;;;2.37;;
6143;SDS011;3103;49.492;8.474;2023-02-19T10:02:59;3.23;;;2.33;;
6143;SDS011;3103;49.492;8.474;2023-02-19T10:05:31;3.80;;;2.67;;
6143;SDS011;3103;49.492;8.474;2023-02-19T10:08:00;2.77;;;2.43;;
6143;SDS011;3103;49.492;8.474;2023-02-19T10:10:34;9.63;;;5.30;;
6143;SDS011;3103;49.492;8.474;2023-02-19T10:13:10;7.23;;;4.30;;
6143;SDS011;3103;49.492;8.474;2023-02-19T10:18:16;5.83;;;3.57;;
6143;SDS011;3103;49.492;8.474;2023-02-19T10:20:45;5.60;;;3.50;;
6143;SDS011;3103;49.492;8.474;2023-02-19T10:23:13;14.23;;;7.17;;
6143;SDS011;3103;49.492;8.474;2023-02-19T10:25:48;6.67;;;3.80;;
6143;SDS011;3103;49.492;8.474;2023-02-19T10:28:20;6.60;;;4.57;;
6143;SDS011;3103;49.492;8.474;2023-02-19T10:30:52;8.77;;;5.07;;
6143;SDS011;3103;49.492;8.474;2023-02-19T10:33:21;5.40;;;3.03;;
6143;SDS011;3103;49.492;8.474;2023-02-19T10:35:59;4.97;;;2.57;;
6143;SDS011;3103;49.492;8.474;2023-02-19T10:38:32;9.13;;;4.90;;
6143;SDS011;3103;49.492;8.474;2023-02-19T10:41:05;5.27;;;3.30;;
6143;SDS011;3103;49.492;8.474;2023-02-19T10:43:39;7.00;;;3.40;;
6143;SDS011;3103;49.492;8.474;2023-02-19T10:49:03;5.87;;;3.00;;
6143;SDS011;3103;49.492;8.474;2023-02-19T10:51:33;6.83;;;3.40;;
6143;SDS011;3103;49.492;8.474;2023-02-19T10:54:03;5.50;;;3.20;;
6143;SDS011;3103;49.492;8.474;2023-02-19T10:56:30;4.13;;;2.90;;
6143;SDS011;3103;49.492;8.474;2023-02-19T10:59:14;3.03;;;2.50;;
6143;SDS011;3103;49.492;8.474;2023-02-19T11:01:51;6.13;;;2.87;;
6143;SDS011;3103;49.492;8.474;2023-02-19T11:04:22;7.27;;;3.00;;
6143;SDS011;3103;49.492;8.474;2023-02-19T11:06:49;4.00;;;2.93;;
6143;SDS011;3103;49.492;8.474;2023-02-19T11:09:34;4.73;;;3.07;;
6143;SDS011;3103;49.492;8.474;2023-02-19T11:12:04;3.63;;;2.87;;
6143;SDS011;3103;49.492;8.474;2023-02-19T11:14:34;2.73;;;2.47;;
6143;SDS011;3103;49.492;8.474;2023-02-19T11:17:02;3.73;;;2.07;;
6143;SDS011;3103;49.492;8.474;2023-02-19T11:19:35;5.13;;;3.23;;
6143;SDS011;3103;49.492;8.474;2023-02-19T11:25:20;3.63;;;2.47;;
6143;SDS011;3103;49.492;8.474;2023-02-19T11:32:47;4.63;;;2.50;;
6143;SDS011;3103;49.492;8.474;2023-02-19T11:35:20;4.17;;;2.13;;
6143;SDS011;3103;49.492;8.474;2023-02-19T11:37:57;4.13;;;2.27;;
6143;SDS011;3103;49.492;8.474;2023-02-19T11:40:32;3.63;;;2.40;;
6143;SDS011;3103;49.492;8.474;2023-02-19T11:43:21;5.00;;;3.20;;
6143;SDS011;3103;49.492;8.474;2023-02-19T11:46:28;4.93;;;2.80;;
6143;SDS011;3103;49.492;8.474;2023-02-19T11:49:27;12.13;;;3.00;;
6143;SDS011;3103;49.492;8.474;2023-02-19T11:57:21;6.70;;;3.63;;
6143;SDS011;3103;49.492;8.474;2023-02-19T12:11:19;8.63;;;4.70;;
6143;SDS011;3103;49.492;8.474;2023-02-19T12:16:58;6.20;;;3.70;;
6143;SDS011;3103;49.492;8.474;2023-02-19T12:45:03;5.70;;;3.90;;
6143;SDS011;3103;49.492;8.474;2023-02-19T12:47:41;6.73;;;3.30;;
6143;SDS011;3103;49.492;8.474;2023-02-19T12:50:24;7.90;;;4.00;;
6143;SDS011;3103;49.492;8.474;2023-02-19T12:52:55;8.83;;;5.00;;
6143;SDS011;3103;49.492;8.474;2023-02-19T12:55:38;6.87;;;3.23;;
6143;SDS011;3103;49.492;8.474;2023-02-19T12:58:10;4.80;;;3.53;;
6143;SDS011;3103;49.492;8.474;2023-02-19T13:00:46;3.67;;;2.73;;
6143;SDS011;3103;49.492;8.474;2023-02-19T13:08:59;5.37;;;3.13;;
6143;SDS011;3103;49.492;8.474;2023-02-19T13:11:40;9.43;;;3.53;;
6143;SDS011;3103;49.492;8.474;2023-02-19T13:16:41;10.73;;;5.00;;
6143;SDS011;3103;49.492;8.474;2023-02-19T13:19:15;4.13;;;2.73;;
6143;SDS011;3103;49.492;8.474;2023-02-19T13:21:41;8.80;;;3.73;;
6143;SDS011;3103;49.492;8.474;2023-02-19T13:24:32;4.43;;;2.70;;
6143;SDS011;3103;49.492;8.474;2023-02-19T13:36:11;21.13;;;11.87;;
6143;SDS011;3103;49.492;8.474;2023-02-19T13:38:42;10.23;;;5.77;;
6143;SDS011;3103;49.492;8.474;2023-02-19T13:41:16;6.87;;;4.27;;
6143;SDS011;3103;49.492;8.474;2023-02-19T13:43:45;7.03;;;4.10;;
6143;SDS011;3103;49.492;8.474;2023-02-19T13:46:19;9.93;;;5.23;;
6143;SDS011;3103;49.492;8.474;2023-02-19T13:48:47;6.03;;;3.07;;
6143;SDS011;3103;49.492;8.474;2023-02-19T13:53:57;6.10;;;3.50;;
6143;SDS011;3103;49.492;8.474;2023-02-19T13:58:57;4.80;;;2.90;;
6143;SDS011;3103;49.492;8.474;2023-02-19T14:04:22;5.93;;;3.67;;
6143;SDS011;3103;49.492;8.474;2023-02-19T14:17:43;5.43;;;2.27;;
6143;SDS011;3103;49.492;8.474;2023-02-19T14:33:35;9.60;;;3.80;;
6143;SDS011;3103;49.492;8.474;2023-02-19T14:39:01;6.60;;;2.67;;
6143;SDS011;3103;49.492;8.474;2023-02-19T14:41:29;5.43;;;2.30;;
6143;SDS011;3103;49.492;8.474;2023-02-19T14:44:01;5.43;;;2.37;;
6143;SDS011;3103;49.492;8.474;2023-02-19T14:46:47;8.97;;;5.20;;
6143;SDS011;3103;49.492;8.474;2023-02-19T14:52:15;7.60;;;3.43;;
6143;SDS011;3103;49.492;8.474;2023-02-19T14:55:34;6.57;;;3.50;;
6143;SDS011;3103;49.492;8.474;2023-02-19T14:57:45;10.10;;;4.50;;
6143;SDS011;3103;49.492;8.474;2023-02-19T15:05:58;10.27;;;4.53;;
6143;SDS011;3103;49.492;8.474;2023-02-19T15:08:41;7.53;;;3.50;;
6143;SDS011;3103;49.492;8.474;2023-02-19T15:11:18;8.33;;;3.83;;
6143;SDS011;3103;49.492;8.474;2023-02-19T15:13:51;13.43;;;5.87;;
6143;SDS011;3103;49.492;8.474;2023-02-19T15:16:24;13.90;;;7.93;;
6143;SDS011;3103;49.492;8.474;2023-02-19T15:18:54;12.47;;;5.90;;
6143;SDS011;3103;49.492;8.474;2023-02-19T15:21:24;7.30;;;4.43;;
6143;SDS011;3103;49.492;8.474;2023-02-19T15:23:55;6.73;;;4.90;;
6143;SDS011;3103;49.492;8.474;2023-02-19T15:27:11;6.90;;;3.00;;
6143;SDS011;3103;49.492;8.474;2023-02-19T15:29:18;7.67;;;5.40;;
6143;SDS011;3103;49.492;8.474;2023-02-19T15:31:50;6.77;;;4.10;;
6143;SDS011;3103;49.492;8.474;2023-02-19T15:34:25;4.80;;;3.07;;
6143;SDS011;3103;49.492;8.474;2023-02-19T15:36:59;8.03;;;3.43;;
6143;SDS011;3103;49.492;8.474;2023-02-19T15:39:41;10.80;;;4.90;;
6143;SDS011;3103;49.492;8.474;2023-02-19T15:42:16;10.03;;;4.50;;
6143;SDS011;3103;49.492;8.474;2023-02-19T15:44:50;8.20;;;4.10;;
6143;SDS011;3103;49.492;8.474;2023-02-19T16:03:33;8.47;;;4.73;;
6143;SDS011;3103;49.492;8.474;2023-02-19T16:06:09;9.53;;;5.47;;
6143;SDS011;3103;49.492;8.474;2023-02-19T16:08:44;10.87;;;6.37;;
6143;SDS011;3103;49.492;8.474;2023-02-19T16:11:35;12.80;;;5.80;;
6143;SDS011;3103;49.492;8.474;2023-02-19T16:14:14;10.03;;;4.67;;
6143;SDS011;3103;49.492;8.474;2023-02-19T16:16:48;21.73;;;11.30;;
6143;SDS011;3103;49.492;8.474;2023-02-19T16:19:20;21.43;;;11.63;;
6143;SDS011;3103;49.492;8.474;2023-02-19T16:21:50;17.70;;;10.03;;
6143;SDS011;3103;49.492;8.474;2023-02-19T16:27:02;19.30;;;9.17;;
6143;SDS011;3103;49.492;8.474;2023-02-19T16:29:32;17.93;;;9.57;;
6143;SDS011;3103;49.492;8.474;2023-02-19T16:32:02;10.83;;;5.80;;
6143;SDS011;3103;49.492;8.474;2023-02-19T16:45:14;8.67;;;5.00;;
6143;SDS011;3103;49.492;8.474;2023-02-19T16:47:43;12.67;;;6.60;;
6143;SDS011;3103;49.492;8.474;2023-02-19T16:50:21;20.23;;;10.00;;
6143;SDS011;3103;49.492;8.474;2023-02-19T16:52:51;13.50;;;7.70;;
6143;SDS011;3103;49.492;8.474;2023-02-19T16:55:26;6.47;;;3.83;;
6143;SDS011;3103;49.492;8.474;2023-02-19T16:57:58;7.53;;;3.93;;
6143;SDS011;3103;49.492;8.474;2023-02-19T17:00:31;8.40;;;4.50;;
6143;SDS011;3103;49.492;8.474;2023-02-19T17:03:03;14.63;;;6.40;;
6143;SDS011;3103;49.492;8.474;2023-02-19T17:05:35;19.17;;;10.97;;
6143;SDS011;3103;49.492;8.474;2023-02-19T17:08:04;29.03;;;15.53;;
6143;SDS011;3103;49.492;8.474;2023-02-19T17:10:44;20.40;;;8.77;;
6143;SDS011;3103;49.492;8.474;2023-02-19T17:13:16;16.13;;;8.67;;
6143;SDS011;3103;49.492;8.474;2023-02-19T17:15:46;12.80;;;6.43;;
6143;SDS011;3103;49.492;8.474;2023-02-19T17:18:17;12.67;;;6.10;;
6143;SDS011;3103;49.492;8.474;2023-02-19T17:20:55;11.90;;;6.17;;
6143;SDS011;3103;49.492;8.474;2023-02-19T17:23:33;14.13;;;6.13;;
6143;SDS011;3103;49.492;8.474;2023-02-19T17:26:09;17.17;;;8.10;;
6143;SDS011;3103;49.492;8.474;2023-02-19T17:28:48;18.50;;;8.93;;
6143;SDS011;3103;49.492;8.474;2023-02-19T17:31:16;14.03;;;8.20;;
6143;SDS011;3103;49.492;8.474;2023-02-19T17:33:44;26.13;;;9.37;;
6143;SDS011;3103;49.492;8.474;2023-02-19T17:36:21;13.27;;;6.47;;
6143;SDS011;3103;49.492;8.474;2023-02-19T17:39:05;15.73;;;9.33;;
6143;SDS011;3103;49.492;8.474;2023-02-19T17:41:34;20.13;;;11.23;;
6143;SDS011;3103;49.492;8.474;2023-02-19T17:44:07;21.63;;;11.67;;
6143;SDS011;3103;49.492;8.474;2023-02-19T17:46:59;12.87;;;7.53;;
6143;SDS011;3103;49.492;8.474;2023-02-19T17:49:30;9.17;;;4.57;;
6143;SDS011;3103;49.492;8.474;2023-02-19T17:52:00;8.73;;;5.00;;
6143;SDS011;3103;49.492;8.474;2023-02-19T17:54:30;20.73;;;9.03;;
6143;SDS011;3103;49.492;8.474;2023-02-19T17:57:02;17.70;;;8.17;;
6143;SDS011;3103;49.492;8.474;2023-02-19T17:59:32;15.77;;;7.50;;
6143;SDS011;3103;49.492;8.474;2023-02-19T18:02:03;23.17;;;11.57;;
6143;SDS011;3103;49.492;8.474;2023-02-19T18:04:31;23.83;;;12.40;;
6143;SDS011;3103;49.492;8.474;2023-02-19T18:07:00;18.77;;;10.40;;
6143;SDS011;3103;49.492;8.474;2023-02-19T18:09:28;24.87;;;12.57;;
6143;SDS011;3103;49.492;8.474;2023-02-19T18:12:09;21.33;;;10.87;;
6143;SDS011;3103;49.492;8.474;2023-02-19T18:14:48;24.77;;;12.20;;
6143;SDS011;3103;49.492;8.474;2023-02-19T18:17:16;14.57;;;8.10;;
6143;SDS011;3103;49.492;8.474;2023-02-19T18:19:54;12.50;;;6.73;;
6143;SDS011;3103;49.492;8.474;2023-02-19T18:22:24;15.27;;;7.20;;
6143;SDS011;3103;49.492;8.474;2023-02-19T18:24:52;12.13;;;6.20;;
6143;SDS011;3103;49.492;8.474;2023-02-19T18:27:20;12.17;;;6.47;;
6143;SDS011;3103;49.492;8.474;2023-02-19T18:29:53;16.07;;;8.07;;
6143;SDS011;3103;49.492;8.474;2023-02-19T18:32:32;20.13;;;8.07;;
6143;SDS011;3103;49.492;8.474;2023-02-19T18:35:23;11.20;;;6.17;;
6143;SDS011;3103;49.492;8.474;2023-02-19T18:38:04;15.03;;;7.33;;